^^
No Wait Weather (KNEBELLE1) Station Historical Data
Daily Summary for May 8, 2019 Units:  English    Metric   Both
Daily Weekly Monthly Yearly Custom
  High: Low: Average:
Temperature: 53.6 °F 42.5 °F 50.8 °F
Dew Point: 52.27 °F 38.91 °F 48.7 °F
Humidity: 99% 79% 93%
Wind Speed: 10mph 0mph 0.7mph
Wind Gust: 11mph - -
Wind- - ESE
Pressure: 29.83 in 29.44 in -
Precipitation: 1.06 in    
Historical Graphs
 
 
Tabular Data for May 8, 2019
Time Temperature Dew Point Pressure Wind Wind Speed Wind Gust Humidity Rainfall Rate (Hourly) solar
00:04 53.6 °F 51.62 °F 29.83 in Calm     93% 0 in WeatherCatV3.04B91 W/m2
00:09 53.6 °F 51.62 °F 29.83 in Calm     93% 0 in WeatherCatV3.04B91 W/m2
00:14 53.5 °F 51.52 °F 29.83 in Calm     93% 0 in WeatherCatV3.04B91 W/m2
00:19 53.5 °F 51.52 °F 29.83 in NE 2 mph 6 mph 93% 0 in WeatherCatV3.04B91 W/m2
00:24 53.5 °F 51.81 °F 29.83 in Calm     94% 0 in WeatherCatV3.04B91 W/m2
00:29 53.5 °F 51.81 °F 29.82 in Calm     94% 0 in WeatherCatV3.04B91 W/m2
00:34 53.5 °F 51.81 °F 29.82 in Calm     94% 0 in WeatherCatV3.04B91 W/m2
00:39 53.5 °F 51.81 °F 29.82 in Calm     94% 0 in WeatherCatV3.04B91 W/m2
00:44 53.5 °F 51.81 °F 29.81 in Calm   3 mph 94% 0 in WeatherCatV3.04B91 W/m2
00:49 53.5 °F 51.81 °F 29.81 in Calm     94% 0 in WeatherCatV3.04B91 W/m2
00:54 53.5 °F 51.81 °F 29.81 in Calm     94% 0 in WeatherCatV3.04B91 W/m2
00:59 53.5 °F 52.1 °F 29.80 in Calm   2 mph 95% 0 in WeatherCatV3.04B91 W/m2
01:04 53.5 °F 52.1 °F 29.80 in Calm   3 mph 95% 0 in WeatherCatV3.04B91 W/m2
01:09 53.5 °F 52.1 °F 29.80 in Calm     95% 0 in WeatherCatV3.04B91 W/m2
01:14 53.5 °F 52.1 °F 29.79 in Calm     95% 0 in WeatherCatV3.04B91 W/m2
01:19 53.5 °F 52.1 °F 29.79 in Calm     95% 0 in WeatherCatV3.04B91 W/m2
01:24 53.5 °F 52.1 °F 29.79 in Calm     95% 0 in WeatherCatV3.04B91 W/m2
01:29 53.5 °F 52.1 °F 29.78 in Calm     95% 0 in WeatherCatV3.04B91 W/m2
01:34 53.5 °F 52.1 °F 29.78 in ENE 2 mph 4 mph 95% 0 in WeatherCatV3.04B91 W/m2
01:39 53.3 °F 51.9 °F 29.78 in Calm   4 mph 95% 0 in WeatherCatV3.04B91 W/m2
01:44 53.3 °F 52.19 °F 29.77 in Calm     96% 0 in WeatherCatV3.04B91 W/m2
01:49 53.3 °F 52.19 °F 29.77 in Calm     96% 0 in WeatherCatV3.04B91 W/m2
01:54 53.3 °F 52.19 °F 29.77 in Calm     96% 0 in WeatherCatV3.04B91 W/m2
01:59 53.3 °F 52.19 °F 29.76 in Calm     96% 0 in WeatherCatV3.04B91 W/m2
02:04 53.3 °F 52.19 °F 29.76 in Calm     96% 0 in WeatherCatV3.04B91 W/m2
02:09 53.3 °F 52.19 °F 29.76 in Calm     96% 0 in WeatherCatV3.04B91 W/m2
02:14 53.3 °F 52.19 °F 29.75 in ENE 3 mph 4 mph 96% 0 in WeatherCatV3.04B91 W/m2
02:19 53.3 °F 52.19 °F 29.75 in NE 3 mph 3 mph 96% 0 in WeatherCatV3.04B91 W/m2
02:24 53.2 °F 52.09 °F 29.75 in Calm     96% 0 in WeatherCatV3.04B91 W/m2
02:29 53.2 °F 52.09 °F 29.74 in Calm     96% 0 in WeatherCatV3.04B91 W/m2
02:34 53.2 °F 52.09 °F 29.74 in ENE 3 mph 8 mph 96% 0 in WeatherCatV3.04B91 W/m2
02:39 53.1 °F 51.99 °F 29.74 in ENE 2 mph 2 mph 96% 0 in WeatherCatV3.04B91 W/m2
02:44 53.1 °F 51.99 °F 29.73 in Calm     96% 0 in WeatherCatV3.04B91 W/m2
02:49 53.1 °F 51.99 °F 29.73 in ENE 2 mph 2 mph 96% 0 in WeatherCatV3.04B91 W/m2
02:54 53.1 °F 51.99 °F 29.73 in Calm     96% 0.04 in WeatherCatV3.04B91 W/m2
02:59 53.1 °F 52.27 °F 29.72 in Calm     97% 0.04 in WeatherCatV3.04B91 W/m2
03:04 53.1 °F 52.27 °F 29.72 in Calm     97% 0.05 in WeatherCatV3.04B91 W/m2
03:09 53.1 °F 52.27 °F 29.72 in East 4 mph 4 mph 97% 0.05 in WeatherCatV3.04B91 W/m2
03:14 53.1 °F 52.27 °F 29.72 in Calm     97% 0.05 in WeatherCatV3.04B91 W/m2
03:18 53.1 °F 52.27 °F 29.72 in Calm     97% 0.05 in WeatherCatV3.04B91 W/m2
03:24 53.1 °F 52.27 °F 29.72 in Calm   2 mph 97% 0.22 in WeatherCatV3.04B91 W/m2
03:29 53.1 °F 52.27 °F 29.71 in Calm   2 mph 97% 0.74 in WeatherCatV3.04B91 W/m2
03:34 53.1 °F 52.27 °F 29.71 in Calm     97% 0.76 in WeatherCatV3.04B91 W/m2
03:39 52.9 °F 52.07 °F 29.71 in Calm     97% 0.47 in WeatherCatV3.04B91 W/m2
03:44 52.9 °F 52.07 °F 29.71 in Calm     97% 0.36 in WeatherCatV3.04B91 W/m2
03:49 52.9 °F 52.07 °F 29.71 in Calm     97% 0.21 in WeatherCatV3.04B91 W/m2
03:54 52.9 °F 52.07 °F 29.71 in NE 1 mph 1 mph 97% 0.21 in WeatherCatV3.04B91 W/m2
03:59 52.9 °F 52.07 °F 29.69 in Calm   3 mph 97% 0.26 in WeatherCatV3.04B91 W/m2
04:04 52.9 °F 52.07 °F 29.69 in Calm   3 mph 97% 0.36 in WeatherCatV3.04B91 W/m2
04:09 52.9 °F 52.07 °F 29.69 in Calm     97% 0.15 in WeatherCatV3.04B91 W/m2
04:14 52.8 °F 51.97 °F 29.68 in Calm     97% 0.15 in WeatherCatV3.04B91 W/m2
04:19 52.8 °F 51.97 °F 29.68 in Calm     97% 0.09 in WeatherCatV3.04B91 W/m2
04:24 52.8 °F 51.97 °F 29.68 in Calm   3 mph 97% 0.1 in WeatherCatV3.04B91 W/m2
04:29 52.8 °F 51.97 °F 29.67 in Calm   1 mph 97% 0.1 in WeatherCatV3.04B91 W/m2
04:34 52.8 °F 51.97 °F 29.67 in Calm     97% 0.1 in WeatherCatV3.04B91 W/m2
04:39 52.8 °F 51.97 °F 29.67 in Calm     97% 0.12 in WeatherCatV3.04B91 W/m2
04:44 52.8 °F 52.25 °F 29.66 in Calm   3 mph 98% 0.08 in WeatherCatV3.04B91 W/m2
04:49 52.8 °F 52.25 °F 29.66 in Calm   3 mph 98% 0.08 in WeatherCatV3.04B91 W/m2
04:54 52.8 °F 52.25 °F 29.66 in Calm   4 mph 98% 0.08 in WeatherCatV3.04B91 W/m2
04:59 52.8 °F 52.25 °F 29.65 in ENE 3 mph 5 mph 98% 0.09 in WeatherCatV3.04B91 W/m2
05:04 52.6 °F 52.05 °F 29.65 in ENE 1 mph 1 mph 98% 0.13 in WeatherCatV3.04B91 W/m2
05:09 52.6 °F 52.05 °F 29.65 in Calm   2 mph 98% 0.11 in WeatherCatV3.04B91 W/m2
05:14 52.5 °F 51.95 °F 29.64 in Calm   2 mph 98% 0.07 in WeatherCatV3.04B91 W/m2
05:19 52.3 °F 51.75 °F 29.64 in Calm     98% 0.07 in WeatherCatV3.04B91 W/m2
05:24 52.3 °F 51.75 °F 29.64 in Calm     98% 0.06 in WeatherCatV3.04B91 W/m2
05:29 52.2 °F 51.65 °F 29.63 in Calm   3 mph 98% 0.28 in WeatherCatV3.04B91 W/m2
05:34 52.2 °F 51.65 °F 29.63 in Calm     98% 0.1 in WeatherCatV3.04B91 W/m2
05:39 52.2 °F 51.65 °F 29.63 in Calm   1 mph 98% 0.1 in WeatherCatV3.04B91 W/m2
05:44 52 °F 51.45 °F 29.63 in NE 1 mph 6 mph 98% 0.07 in WeatherCatV3.04B91 W/m2
05:49 52 °F 51.45 °F 29.63 in Calm   6 mph 98% 0.07 in WeatherCatV3.04B91 W/m2
05:54 52 °F 51.45 °F 29.63 in Calm   3 mph 98% 0.05 in WeatherCatV3.04B91 W/m2
05:58 51.9 °F 51.35 °F 29.63 in Calm     98% 0.05 in WeatherCatV3.04B91 W/m2
06:04 51.9 °F 51.35 °F 29.61 in Calm   4 mph 98% 0.07 in WeatherCatV3.04B91 W/m2
06:09 51.7 °F 51.15 °F 29.61 in Calm   4 mph 98% 0.11 in WeatherCatV3.04B91 W/m2
06:14 51.7 °F 51.15 °F 29.60 in Calm     98% 0.14 in WeatherCatV3.04B91 W/m2
06:19 51.7 °F 51.15 °F 29.60 in Calm   4 mph 98% 0.09 in WeatherCatV3.04B91 W/m2
06:24 51.7 °F 51.15 °F 29.60 in Calm     98% 0.11 in WeatherCatV3.04B91 W/m2
06:29 51.7 °F 51.15 °F 29.59 in Calm     98% 0.13 in WeatherCatV3.04B91 W/m2
06:34 51.7 °F 51.15 °F 29.59 in Calm     98% 0.1 in WeatherCatV3.04B91 W/m2
06:39 51.7 °F 51.15 °F 29.59 in Calm   3 mph 98% 0.1 in WeatherCatV3.04B91 W/m2
06:44 51.6 °F 51.05 °F 29.58 in Calm   3 mph 98% 0.15 in WeatherCatV3.04B91 W/m2
06:49 51.6 °F 51.05 °F 29.58 in Calm   3 mph 98% 0.13 in WeatherCatV3.04B91 W/m2
06:54 51.6 °F 51.05 °F 29.58 in NE 3 mph 4 mph 98% 0.16 in WeatherCatV3.04B91 W/m2
06:59 51.6 °F 51.05 °F 29.57 in Calm   5 mph 98% 0.1 in WeatherCatV3.04B91 W/m2
07:04 51.7 °F 51.15 °F 29.57 in Calm   4 mph 98% 0.11 in WeatherCatV3.04B91 W/m2
07:09 51.7 °F 51.15 °F 29.57 in ENE 1 mph 4 mph 98% 0.09 in WeatherCatV3.04B91 W/m2
07:14 51.7 °F 51.15 °F 29.56 in Calm   6 mph 98% 0.06 in WeatherCatV3.04B91 W/m2
07:19 51.7 °F 51.15 °F 29.56 in Calm   2 mph 98% 0.06 in WeatherCatV3.04B91 W/m2
07:24 51.7 °F 51.15 °F 29.56 in NNE 9 mph 9 mph 98% 0.06 in WeatherCatV3.04B91 W/m2
07:29 51.6 °F 51.05 °F 29.56 in Calm   4 mph 98% 0.06 in WeatherCatV3.04B91 W/m2
07:34 51.6 °F 51.05 °F 29.56 in Calm     98% 0.06 in WeatherCatV3.04B91 W/m2
07:39 51.4 °F 50.85 °F 29.56 in Calm   5 mph 98% 0.06 in WeatherCatV3.04B91 W/m2
07:44 51.4 °F 50.85 °F 29.55 in ENE 1 mph 3 mph 98% 0.09 in WeatherCatV3.04B91 W/m2
07:49 51.4 °F 50.85 °F 29.55 in Calm   4 mph 98% 0.07 in WeatherCatV3.04B91 W/m2
07:54 51.4 °F 50.85 °F 29.55 in Calm     98% 0.14 in WeatherCatV3.04B91 W/m2
07:59 51.3 °F 50.75 °F 29.55 in Calm     98% 0.09 in WeatherCatV3.04B91 W/m2
08:04 51.1 °F 50.55 °F 29.55 in ENE 3 mph 4 mph 98% 0.07 in WeatherCatV3.04B91 W/m2
08:09 51.1 °F 50.55 °F 29.55 in Calm   5 mph 98% 0.08 in WeatherCatV3.04B91 W/m2
08:14 51.1 °F 50.55 °F 29.54 in Calm     98% 0.13 in WeatherCatV3.04B91 W/m2
08:19 51.1 °F 50.55 °F 29.54 in NNE 4 mph 5 mph 98% 0.11 in WeatherCatV3.04B91 W/m2
08:24 51.1 °F 50.55 °F 29.54 in Calm   4 mph 98% 0.09 in WeatherCatV3.04B91 W/m2
08:29 51.1 °F 50.55 °F 29.54 in Calm     98% 0.22 in WeatherCatV3.04B91 W/m2
08:34 51.1 °F 50.55 °F 29.54 in Calm   5 mph 98% 0.68 in WeatherCatV3.04B91 W/m2
08:39 51 °F 50.45 °F 29.54 in Calm   3 mph 98% 0.4 in WeatherCatV3.04B91 W/m2
08:44 51 °F 50.45 °F 29.52 in NNE 5 mph 5 mph 98% 0.42 in WeatherCatV3.04B91 W/m2
08:49 51.1 °F 50.55 °F 29.52 in Calm     98% 0.18 in WeatherCatV3.04B91 W/m2
08:54 51.1 °F 50.83 °F 29.52 in Calm     99% 0.15 in WeatherCatV3.04B91 W/m2
08:59 51.1 °F 50.83 °F 29.51 in Calm     99% 0.1 in WeatherCatV3.04B91 W/m2
09:04 51.4 °F 51.13 °F 29.51 in ENE 2 mph 4 mph 99% 0.09 in WeatherCatV3.04B91 W/m2
09:09 51.6 °F 51.33 °F 29.51 in ENE 1 mph 3 mph 99% 0.11 in WeatherCatV3.04B91 W/m2
09:14 51.4 °F 50.85 °F 29.50 in NNE 1 mph 5 mph 98% 0.07 in WeatherCatV3.04B91 W/m2
09:19 51.3 °F 50.75 °F 29.50 in Calm   6 mph 98% 0.06 in WeatherCatV3.04B91 W/m2
09:24 51 °F 50.45 °F 29.50 in Calm   1 mph 98% 0.07 in WeatherCatV3.04B91 W/m2
09:29 50.8 °F 50.25 °F 29.49 in NE 5 mph 9 mph 98% 0.07 in WeatherCatV3.04B91 W/m2
09:34 50.5 °F 49.96 °F 29.49 in NNE 10 mph 10 mph 98% 0.07 in WeatherCatV3.04B91 W/m2
09:39 50.2 °F 49.66 °F 29.49 in ENE 1 mph 6 mph 98% 0.07 in WeatherCatV3.04B91 W/m2
09:44 50.2 °F 49.66 °F 29.47 in NE 3 mph 5 mph 98% 0.06 in WeatherCatV3.04B91 W/m2
09:49 50.2 °F 49.66 °F 29.47 in NE 4 mph 5 mph 98% 0.06 in WeatherCatV3.04B91 W/m2
09:54 50.1 °F 49.56 °F 29.47 in NE 5 mph 7 mph 98% 0.05 in WeatherCatV3.04B91 W/m2
09:59 49.9 °F 49.36 °F 29.46 in East 6 mph 9 mph 98% 0.04 in WeatherCatV3.04B91 W/m2
10:04 49.9 °F 49.36 °F 29.46 in Calm   5 mph 98% 0.04 in WeatherCatV3.04B91 W/m2
10:09 49.8 °F 49.26 °F 29.46 in NE 5 mph 7 mph 98% 0.04 in WeatherCatV3.04B91 W/m2
10:14 49.8 °F 49.26 °F 29.46 in ENE 4 mph 5 mph 98% 0 in WeatherCatV3.04B91 W/m2
10:19 49.6 °F 49.06 °F 29.46 in Calm   7 mph 98% 0 in WeatherCatV3.04B91 W/m2
10:24 49.5 °F 48.96 °F 29.46 in NNE 2 mph 5 mph 98% 0 in WeatherCatV3.04B91 W/m2
10:29 49.5 °F 48.96 °F 29.46 in NNE 1 mph 3 mph 98% 0 in WeatherCatV3.04B91 W/m2
10:34 49.5 °F 48.96 °F 29.46 in NE 4 mph 6 mph 98% 0 in WeatherCatV3.04B91 W/m2
10:39 49.5 °F 48.96 °F 29.46 in Calm     98% 0.05 in WeatherCatV3.04B91 W/m2
10:44 49.4 °F 48.86 °F 29.47 in NE 1 mph 5 mph 98% 0.05 in WeatherCatV3.04B91 W/m2
10:49 49.4 °F 49.13 °F 29.47 in ENE 1 mph 3 mph 99% 0.05 in WeatherCatV3.04B91 W/m2
10:54 49.4 °F 49.13 °F 29.47 in Calm     99% 0.04 in WeatherCatV3.04B91 W/m2
10:59 49.5 °F 49.23 °F 29.46 in Calm   3 mph 99% 0.04 in WeatherCatV3.04B91 W/m2
11:04 49.5 °F 49.23 °F 29.46 in Calm     99% 0.06 in WeatherCatV3.04B91 W/m2
11:09 49.5 °F 49.23 °F 29.46 in Calm   4 mph 99% 0.16 in WeatherCatV3.04B91 W/m2
11:14 49.5 °F 49.23 °F 29.46 in Calm   2 mph 99% 0.11 in WeatherCatV3.04B91 W/m2
11:19 49.5 °F 49.23 °F 29.46 in Calm     99% 0.13 in WeatherCatV3.04B91 W/m2
11:24 49.6 °F 49.33 °F 29.46 in Calm   1 mph 99% 0.1 in WeatherCatV3.04B91 W/m2
11:29 49.6 °F 49.33 °F 29.47 in NE 1 mph 1 mph 99% 0.08 in WeatherCatV3.04B91 W/m2
11:34 49.6 °F 49.33 °F 29.47 in Calm     99% 0.06 in WeatherCatV3.04B91 W/m2
11:39 49.6 °F 49.33 °F 29.47 in Calm     99% 0.15 in WeatherCatV3.04B91 W/m2
11:44 49.6 °F 49.33 °F 29.46 in Calm   1 mph 99% 0.08 in WeatherCatV3.04B91 W/m2
11:49 49.4 °F 49.13 °F 29.46 in Calm     99% 0.08 in WeatherCatV3.04B91 W/m2
11:54 49.2 °F 48.93 °F 29.46 in Calm   4 mph 99% 0.05 in WeatherCatV3.04B91 W/m2
11:59 49.4 °F 49.13 °F 29.45 in Calm     99% 0.04 in WeatherCatV3.04B91 W/m2
12:04 49.2 °F 48.93 °F 29.45 in Calm     99% 0 in WeatherCatV3.04B91 W/m2
12:09 49.4 °F 49.13 °F 29.45 in Calm     99% 0 in WeatherCatV3.04B91 W/m2
12:14 49.4 °F 49.13 °F 29.44 in Calm   4 mph 99% 0 in WeatherCatV3.04B91 W/m2
12:19 49.5 °F 49.23 °F 29.44 in Calm   3 mph 99% 0 in WeatherCatV3.04B91 W/m2
12:24 49.5 °F 49.23 °F 29.44 in Calm   2 mph 99% 0 in WeatherCatV3.04B91 W/m2
12:29 49.4 °F 49.13 °F 29.44 in Calm     99% 0 in WeatherCatV3.04B91 W/m2
12:34 49.5 °F 49.23 °F 29.44 in Calm   4 mph 99% 0 in WeatherCatV3.04B91 W/m2
12:39 49.5 °F 49.23 °F 29.44 in Calm     99% 0 in WeatherCatV3.04B91 W/m2
12:44 49.5 °F 49.23 °F 29.44 in Calm   2 mph 99% 0 in WeatherCatV3.04B91 W/m2
12:49 49.4 °F 49.13 °F 29.44 in Calm   3 mph 99% 0 in WeatherCatV3.04B91 W/m2
12:54 49.2 °F 48.93 °F 29.44 in Calm   1 mph 99% 0 in WeatherCatV3.04B91 W/m2
12:59 49.4 °F 49.13 °F 29.44 in Calm     99% 0 in WeatherCatV3.04B91 W/m2
13:04 49.5 °F 49.23 °F 29.44 in North 3 mph 3 mph 99% 0 in WeatherCatV3.04B91 W/m2
13:09 49.4 °F 49.13 °F 29.44 in Calm   4 mph 99% 0 in WeatherCatV3.04B91 W/m2
13:14 49.8 °F 49.53 °F 29.46 in Calm     99% 0 in WeatherCatV3.04B91 W/m2
13:19 49.8 °F 49.53 °F 29.46 in Calm   1 mph 99% 0 in WeatherCatV3.04B91 W/m2
13:24 49.6 °F 49.33 °F 29.46 in Calm     99% 0 in WeatherCatV3.04B91 W/m2
13:29 49.8 °F 49.53 °F 29.46 in Calm   3 mph 99% 0 in WeatherCatV3.04B91 W/m2
13:34 49.9 °F 49.63 °F 29.46 in Calm     99% 0 in WeatherCatV3.04B91 W/m2
13:39 50.2 °F 49.93 °F 29.46 in North 3 mph 3 mph 99% 0 in WeatherCatV3.04B91 W/m2
13:44 50.4 °F 50.13 °F 29.46 in Calm     99% 0 in WeatherCatV3.04B91 W/m2
13:49 50.4 °F 50.13 °F 29.46 in Calm   7 mph 99% 0 in WeatherCatV3.04B91 W/m2
13:54 50.4 °F 50.13 °F 29.46 in Calm   6 mph 99% 0 in WeatherCatV3.04B91 W/m2
13:59 50.5 °F 50.23 °F 29.46 in Calm   1 mph 99% 0 in WeatherCatV3.04B91 W/m2
14:04 51 °F 50.73 °F 29.46 in Calm   5 mph 99% 0 in WeatherCatV3.04B91 W/m2
14:09 51.3 °F 51.03 °F 29.46 in Calm   1 mph 99% 0 in WeatherCatV3.04B91 W/m2
14:14 51.4 °F 50.85 °F 29.47 in Calm     98% 0 in WeatherCatV3.04B91 W/m2
14:19 51.6 °F 51.05 °F 29.47 in Calm     98% 0 in WeatherCatV3.04B91 W/m2
14:24 51.9 °F 51.35 °F 29.47 in Calm   2 mph 98% 0 in WeatherCatV3.04B91 W/m2
14:28 51.9 °F 51.35 °F 29.47 in Calm     98% 0 in WeatherCatV3.04B91 W/m2
14:34 52.2 °F 51.65 °F 29.47 in Calm     98% 0 in WeatherCatV3.04B91 W/m2
14:39 52 °F 51.45 °F 29.47 in Calm     98% 0 in WeatherCatV3.04B91 W/m2
14:44 52.2 °F 51.65 °F 29.47 in Calm     98% 0 in WeatherCatV3.04B91 W/m2
14:49 52.2 °F 51.37 °F 29.47 in Calm   4 mph 97% 0 in WeatherCatV3.04B91 W/m2
14:54 52.2 °F 51.37 °F 29.47 in Calm     97% 0 in WeatherCatV3.04B91 W/m2
14:59 52.5 °F 51.67 °F 29.49 in Calm     97% 0 in WeatherCatV3.04B91 W/m2
15:04 52.8 °F 51.97 °F 29.49 in Calm     97% 0 in WeatherCatV3.04B91 W/m2
15:09 52.9 °F 51.79 °F 29.49 in Calm     96% 0 in WeatherCatV3.04B91 W/m2
15:14 52.9 °F 51.79 °F 29.50 in Calm   3 mph 96% 0 in WeatherCatV3.04B91 W/m2
15:19 52.9 °F 51.79 °F 29.50 in Calm     96% 0 in WeatherCatV3.04B91 W/m2
15:24 52.9 °F 51.51 °F 29.50 in Calm     95% 0 in WeatherCatV3.04B91 W/m2
15:29 52.9 °F 51.51 °F 29.49 in Calm     95% 0 in WeatherCatV3.04B91 W/m2
15:34 52.9 °F 51.51 °F 29.49 in Calm     95% 0 in WeatherCatV3.04B91 W/m2
15:39 52.9 °F 51.22 °F 29.49 in Calm     94% 0 in WeatherCatV3.04B91 W/m2
15:44 52.9 °F 51.22 °F 29.49 in WSW 1 mph 1 mph 94% 0 in WeatherCatV3.04B91 W/m2
15:49 53.2 °F 51.23 °F 29.49 in Calm     93% 0 in WeatherCatV3.04B91 W/m2
15:54 53.3 °F 51.03 °F 29.49 in Calm     92% 0 in WeatherCatV3.04B91 W/m2
15:59 53.5 °F 50.94 °F 29.51 in Calm   3 mph 91% 0 in WeatherCatV3.04B91 W/m2
16:04 53.5 °F 50.64 °F 29.51 in Calm     90% 0 in WeatherCatV3.04B91 W/m2
16:09 53.3 °F 50.44 °F 29.51 in Calm     90% 0 in WeatherCatV3.04B91 W/m2
16:14 53.5 °F 50.64 °F 29.51 in Calm     90% 0 in WeatherCatV3.04B91 W/m2
16:19 53.3 °F 50.14 °F 29.51 in Calm   5 mph 89% 0 in WeatherCatV3.04B91 W/m2
16:24 53.3 °F 49.53 °F 29.51 in Calm     87% 0 in WeatherCatV3.04B91 W/m2
16:29 53.2 °F 49.12 °F 29.52 in Calm     86% 0 in WeatherCatV3.04B91 W/m2
16:34 53.2 °F 48.81 °F 29.52 in Calm     85% 0 in WeatherCatV3.04B91 W/m2
16:39 53.2 °F 48.49 °F 29.52 in Calm     84% 0 in WeatherCatV3.04B91 W/m2
16:44 53.1 °F 48.39 °F 29.52 in Calm   1 mph 84% 0 in WeatherCatV3.04B91 W/m2
16:49 53.1 °F 48.39 °F 29.52 in Calm     84% 0 in WeatherCatV3.04B91 W/m2
16:54 53.1 °F 48.07 °F 29.52 in Calm   3 mph 83% 0 in WeatherCatV3.04B91 W/m2
16:59 53.1 °F 48.07 °F 29.52 in Calm     83% 0 in WeatherCatV3.04B91 W/m2
17:04 52.8 °F 47.78 °F 29.52 in Calm   1 mph 83% 0 in WeatherCatV3.04B91 W/m2
17:09 52.6 °F 47.58 °F 29.52 in Calm     83% 0 in WeatherCatV3.04B91 W/m2
17:14 52.6 °F 47.58 °F 29.52 in Calm     83% 0 in WeatherCatV3.04B91 W/m2
17:19 52.6 °F 47.58 °F 29.52 in Calm     83% 0 in WeatherCatV3.04B91 W/m2
17:24 52.5 °F 47.16 °F 29.52 in Calm     82% 0 in WeatherCatV3.04B91 W/m2
17:29 52.3 °F 46.97 °F 29.54 in Calm     82% 0 in WeatherCatV3.04B91 W/m2
17:34 52.3 °F 46.64 °F 29.54 in Calm     81% 0 in WeatherCatV3.04B91 W/m2
17:39 52.2 °F 46.22 °F 29.54 in Calm     80% 0 in WeatherCatV3.04B91 W/m2
17:44 52.2 °F 46.22 °F 29.54 in Calm     80% 0 in WeatherCatV3.04B91 W/m2
17:49 52.2 °F 46.22 °F 29.54 in Calm   5 mph 80% 0 in WeatherCatV3.04B91 W/m2
17:54 52 °F 45.69 °F 29.54 in Calm     79% 0 in WeatherCatV3.04B91 W/m2
17:59 51.9 °F 45.93 °F 29.55 in Calm     80% 0 in WeatherCatV3.04B91 W/m2
18:04 51.7 °F 45.73 °F 29.55 in NNW 3 mph 5 mph 80% 0 in WeatherCatV3.04B91 W/m2
18:09 51.4 °F 45.44 °F 29.55 in Calm     80% 0 in WeatherCatV3.04B91 W/m2
18:14 51.3 °F 45.34 °F 29.55 in Calm     80% 0 in WeatherCatV3.04B91 W/m2
18:19 51.3 °F 45.67 °F 29.55 in Calm   1 mph 81% 0 in WeatherCatV3.04B91 W/m2
18:24 51.1 °F 45.47 °F 29.55 in Calm     81% 0 in WeatherCatV3.04B91 W/m2
18:29 51 °F 45.05 °F 29.56 in Calm   3 mph 80% 0 in WeatherCatV3.04B91 W/m2
18:34 50.8 °F 44.85 °F 29.56 in Calm     80% 0 in WeatherCatV3.04B91 W/m2
18:37 50.7 °F 44.76 °F 29.56 in Calm     80% 0 in WeatherCatV3.04B91 W/m2
18:44 50.5 °F 44.56 °F 29.57 in Calm   4 mph 80% 0 in WeatherCatV3.04B91 W/m2
18:49 50.5 °F 44.56 °F 29.57 in Calm     80% 0 in WeatherCatV3.04B91 W/m2
18:54 50.5 °F 44.23 °F 29.57 in Calm     79% 0 in WeatherCatV3.04B91 W/m2
18:59 50.4 °F 44.14 °F 29.57 in Calm   2 mph 79% 0 in WeatherCatV3.04B91 W/m2
19:04 50.4 °F 44.14 °F 29.57 in Calm     79% 0 in WeatherCatV3.04B91 W/m2
19:09 50.2 °F 43.94 °F 29.57 in Calm     79% 0 in WeatherCatV3.04B91 W/m2
19:14 50.2 °F 43.94 °F 29.58 in North 1 mph 4 mph 79% 0 in WeatherCatV3.04B91 W/m2
19:19 50.2 °F 43.94 °F 29.58 in Calm   3 mph 79% 0 in WeatherCatV3.04B91 W/m2
19:24 50.2 °F 44.27 °F 29.58 in Calm   3 mph 80% 0 in WeatherCatV3.04B91 W/m2
19:29 50.2 °F 44.27 °F 29.58 in North 3 mph 5 mph 80% 0 in WeatherCatV3.04B91 W/m2
19:34 50.1 °F 44.17 °F 29.58 in Calm     80% 0 in WeatherCatV3.04B91 W/m2
19:39 50.1 °F 44.5 °F 29.58 in Calm   1 mph 81% 0 in WeatherCatV3.04B91 W/m2
19:44 49.9 °F 44.3 °F 29.59 in Calm   5 mph 81% 0 in WeatherCatV3.04B91 W/m2
19:49 49.8 °F 44.21 °F 29.59 in Calm   6 mph 81% 0 in WeatherCatV3.04B91 W/m2
19:54 49.6 °F 43.69 °F 29.59 in Calm   4 mph 80% 0 in WeatherCatV3.04B91 W/m2
19:59 49.5 °F 43.59 °F 29.61 in NNE 2 mph 6 mph 80% 0 in WeatherCatV3.04B91 W/m2
20:04 49.5 °F 43.59 °F 29.61 in Calm     80% 0 in WeatherCatV3.04B91 W/m2
20:09 49.5 °F 43.59 °F 29.61 in Calm   4 mph 80% 0 in WeatherCatV3.04B91 W/m2
20:14 49.5 °F 43.59 °F 29.61 in North 2 mph 3 mph 80% 0 in WeatherCatV3.04B91 W/m2
20:19 49.4 °F 43.49 °F 29.61 in Calm   6 mph 80% 0 in WeatherCatV3.04B91 W/m2
20:24 49.2 °F 43.3 °F 29.61 in Calm     80% 0 in WeatherCatV3.04B91 W/m2
20:29 48.9 °F 42.68 °F 29.61 in Calm   2 mph 79% 0 in WeatherCatV3.04B91 W/m2
20:34 48.8 °F 42.91 °F 29.61 in North 4 mph 5 mph 80% 0 in WeatherCatV3.04B91 W/m2
20:39 48.6 °F 42.71 °F 29.61 in North 5 mph 9 mph 80% 0 in WeatherCatV3.04B91 W/m2
20:44 48.5 °F 42.62 °F 29.61 in Calm   3 mph 80% 0 in WeatherCatV3.04B91 W/m2
20:49 48.5 °F 42.94 °F 29.61 in Calm   6 mph 81% 0 in WeatherCatV3.04B91 W/m2
20:54 48.2 °F 42.65 °F 29.61 in Calm   2 mph 81% 0 in WeatherCatV3.04B91 W/m2
20:59 48 °F 42.77 °F 29.62 in North 1 mph 4 mph 82% 0 in WeatherCatV3.04B91 W/m2
21:04 47.9 °F 42.67 °F 29.62 in NNW 9 mph 9 mph 82% 0 in WeatherCatV3.04B91 W/m2
21:09 47.6 °F 42.7 °F 29.62 in Calm   11 mph 83% 0 in WeatherCatV3.04B91 W/m2
21:14 47.4 °F 42.5 °F 29.63 in NNW 6 mph 7 mph 83% 0 in WeatherCatV3.04B91 W/m2
21:19 47.1 °F 42.21 °F 29.63 in Calm   6 mph 83% 0 in WeatherCatV3.04B91 W/m2
21:24 47 °F 42.42 °F 29.63 in North 5 mph 9 mph 84% 0 in WeatherCatV3.04B91 W/m2
21:29 46.8 °F 42.22 °F 29.63 in Calm   2 mph 84% 0 in WeatherCatV3.04B91 W/m2
21:34 46.5 °F 42.24 °F 29.63 in Calm   4 mph 85% 0 in WeatherCatV3.04B91 W/m2
21:39 46.4 °F 42.14 °F 29.63 in North 4 mph 4 mph 85% 0 in WeatherCatV3.04B91 W/m2
21:44 46.2 °F 41.94 °F 29.63 in Calm     85% 0 in WeatherCatV3.04B91 W/m2
21:49 46.2 °F 42.25 °F 29.63 in Calm   3 mph 86% 0 in WeatherCatV3.04B91 W/m2
21:54 46.1 °F 42.15 °F 29.63 in Calm   2 mph 86% 0 in WeatherCatV3.04B91 W/m2
21:59 46.1 °F 42.15 °F 29.64 in Calm   2 mph 86% 0 in WeatherCatV3.04B91 W/m2
22:04 46.1 °F 42.15 °F 29.64 in Calm   6 mph 86% 0 in WeatherCatV3.04B91 W/m2
22:09 46 °F 42.05 °F 29.64 in Calm   5 mph 86% 0 in WeatherCatV3.04B91 W/m2
22:14 46 °F 42.05 °F 29.64 in Calm   3 mph 86% 0 in WeatherCatV3.04B91 W/m2
22:19 46 °F 42.05 °F 29.64 in NNW 3 mph 4 mph 86% 0 in WeatherCatV3.04B91 W/m2
22:24 46 °F 42.05 °F 29.64 in Calm     86% 0 in WeatherCatV3.04B91 W/m2
22:29 46 °F 42.05 °F 29.64 in North 3 mph 6 mph 86% 0 in WeatherCatV3.04B91 W/m2
22:34 46 °F 42.05 °F 29.64 in Calm   4 mph 86% 0 in WeatherCatV3.04B91 W/m2
22:39 46 °F 42.05 °F 29.64 in Calm   4 mph 86% 0 in WeatherCatV3.04B91 W/m2
22:44 45.8 °F 41.85 °F 29.64 in Calm   2 mph 86% 0 in WeatherCatV3.04B91 W/m2
22:49 45.7 °F 41.76 °F 29.64 in Calm   5 mph 86% 0 in WeatherCatV3.04B91 W/m2
22:54 45.7 °F 41.76 °F 29.64 in NNW 4 mph 6 mph 86% 0 in WeatherCatV3.04B91 W/m2
22:59 45.5 °F 41.56 °F 29.64 in North 3 mph 4 mph 86% 0 in WeatherCatV3.04B91 W/m2
23:04 45.4 °F 41.46 °F 29.64 in Calm   5 mph 86% 0 in WeatherCatV3.04B91 W/m2
23:09 45.2 °F 41.56 °F 29.64 in Calm   4 mph 87% 0 in WeatherCatV3.04B91 W/m2
23:14 44.9 °F 41.27 °F 29.65 in Calm   4 mph 87% 0 in WeatherCatV3.04B91 W/m2
23:19 44.8 °F 41.17 °F 29.65 in Calm   2 mph 87% 0 in WeatherCatV3.04B91 W/m2
23:24 44.6 °F 40.97 °F 29.65 in NNE 1 mph 4 mph 87% 0 in WeatherCatV3.04B91 W/m2
23:29 44.6 °F 40.97 °F 29.66 in North 5 mph 5 mph 87% 0 in WeatherCatV3.04B91 W/m2
23:34 44.5 °F 40.87 °F 29.66 in North 5 mph 5 mph 87% 0 in WeatherCatV3.04B91 W/m2
23:39 44.3 °F 40.68 °F 29.66 in Calm   1 mph 87% 0 in WeatherCatV3.04B91 W/m2
23:44 43.6 °F 39.69 °F 29.68 in Calm   11 mph 86% 0 in WeatherCatV3.04B91 W/m2
23:49 43.2 °F 39.6 °F 29.68 in North 2 mph 2 mph 87% 0 in WeatherCatV3.04B91 W/m2
23:54 42.8 °F 39.2 °F 29.68 in NNW 3 mph 6 mph 87% 0 in WeatherCatV3.04B91 W/m2
23:59 42.5 °F 38.91 °F 29.68 in North 2 mph 5 mph 87% 0 in WeatherCatV3.04B91 W/m2
Bellevue, Nebraska, USA
Compliments of Weather Underground - 3.25 mb